Time;durP1;ratioP1;P1;durP2;ratioP2;P2;SDS_P1;SDS_P2;PMS_P1;PMS_P2;Temp;Humidity;BMP_temperature;BMP_pressure;BME280_temperature;BME280_humidity;BME280_pressure;Samples;Min_cycle;Max_cycle;Signal;HPM_P1;HPM_P2
2021/01/18 00:00:15;;;;;;;2.60;2.40;;;;;;;-15.37;100.00;99820.48;1751864;81;21961;-69
2021/01/18 00:02:43;;;;;;;4.53;2.83;;;;;;;-15.33;100.00;99820.45;1723173;83;22238;-69
2021/01/18 00:05:11;;;;;;;1.73;1.63;;;;;;;-15.33;100.00;99820.45;1723200;83;21474;-69
2021/01/18 00:07:51;;;;;;;4.33;1.40;;;;;;;-15.29;100.00;99808.31;1723943;82;21754;-69
2021/01/18 00:10:26;;;;;;;14.58;6.58;;;;;;;-15.22;100.00;99806.52;1873915;76;27849;-70
2021/01/18 00:12:55;;;;;;;14.40;5.13;;;;;;;-15.25;100.00;99804.80;1861180;77;20960;-69
2021/01/18 00:15:24;;;;;;;6.83;3.70;;;;;;;-15.25;100.00;99804.80;1849672;77;21874;-69
2021/01/18 00:17:53;;;;;;;5.97;4.00;;;;;;;-15.27;100.00;99801.82;1790877;80;21452;-69
2021/01/18 00:20:22;;;;;;;3.40;3.00;;;;;;;-15.32;100.00;99799.27;1791043;80;21475;-69
2021/01/18 00:22:51;;;;;;;5.00;3.63;;;;;;;-15.32;100.00;99798.81;1799680;79;21661;-69
2021/01/18 00:25:23;;;;;;;2.57;1.47;;;;;;;-15.32;100.00;99791.03;1756185;81;21654;-69
2021/01/18 00:27:51;;;;;;;2.52;2.17;;;;;;;-15.30;100.00;99790.58;1770447;81;21697;-69
2021/01/18 00:30:22;;;;;;;4.37;2.17;;;;;;;-15.29;100.00;99787.13;1756182;81;21024;-70
2021/01/18 00:32:51;;;;;;;12.53;2.00;;;;;;;-15.32;100.00;99788.44;1770266;81;21588;-69
2021/01/18 00:35:19;;;;;;;4.97;3.87;;;;;;;-15.32;100.00;99788.44;1756247;81;22032;-69
2021/01/18 00:37:50;;;;;;;1.73;1.63;;;;;;;-15.39;100.00;99789.38;1770245;81;21445;-69
2021/01/18 00:40:20;;;;;;;6.03;3.30;;;;;;;-15.41;100.00;99792.43;1756275;81;21467;-69
2021/01/18 00:42:48;;;;;;;9.10;4.43;;;;;;;-15.41;100.00;99792.43;1770249;81;21679;-68
2021/01/18 00:45:19;;;;;;;7.63;4.30;;;;;;;-15.42;100.00;99789.44;1756176;81;21445;-69
2021/01/18 00:47:50;;;;;;;5.90;3.70;;;;;;;-15.49;100.00;99787.75;1770264;81;21479;-69
2021/01/18 00:50:22;;;;;;;5.33;2.43;;;;;;;-15.50;100.00;99785.59;1756221;81;21422;-69
2021/01/18 00:52:51;;;;;;;2.47;2.23;;;;;;;-15.52;100.00;99780.87;1770323;81;21922;-69
2021/01/18 00:55:22;;;;;;;6.47;3.63;;;;;;;-15.56;100.00;99786.09;1756236;81;21472;-71
2021/01/18 00:58:12;;;;;;;2.00;1.90;;;;;;;-15.60;100.00;99793.48;1673343;85;21529;-70
2021/01/18 01:00:42;;;;;;;2.90;2.37;;;;;;;-15.64;100.00;99788.77;1666316;86;21392;-69
2021/01/18 01:03:10;;;;;;;4.40;3.17;;;;;;;-15.64;100.00;99788.77;1666688;83;21572;-70
2021/01/18 01:05:38;;;;;;;3.43;1.93;;;;;;;-15.64;100.00;99796.98;1685838;85;21662;-69
2021/01/18 01:08:06;;;;;;;8.57;5.43;;;;;;;-15.64;100.00;99793.95;1685931;83;21580;-70
2021/01/18 01:10:36;;;;;;;10.23;5.20;;;;;;;-15.64;100.00;99793.95;1688062;84;21460;-69
2021/01/18 01:13:10;;;;;;;1.53;1.43;;;;;;;-15.76;100.00;99805.74;1690254;84;21474;-70
2021/01/18 01:15:38;;;;;;;2.93;2.53;;;;;;;-15.76;100.00;99805.74;1693812;83;21447;-70
2021/01/18 01:18:06;;;;;;;3.63;2.23;;;;;;;-15.78;100.00;99810.94;1698333;84;21550;-70
2021/01/18 01:20:34;;;;;;;6.37;3.53;;;;;;;-15.82;100.00;99802.77;1697985;84;22002;-69
2021/01/18 01:23:02;;;;;;;2.20;2.07;;;;;;;-15.82;100.00;99802.77;1697850;84;21419;-70
2021/01/18 01:25:30;;;;;;;5.93;1.63;;;;;;;-15.88;100.00;99802.80;1697751;84;21485;-70
2021/01/18 01:27:58;;;;;;;6.60;3.60;;;;;;;-15.89;100.00;99803.25;1697792;84;21449;-69
2021/01/18 01:30:26;;;;;;;7.97;2.47;;;;;;;-15.84;100.00;99809.70;1799779;79;21957;-69
2021/01/18 01:32:54;;;;;;;1.53;1.43;;;;;;;-15.84;100.00;99809.70;1803128;79;21957;-69
2021/01/18 01:35:25;;;;;;;4.63;2.77;;;;;;;-15.79;100.00;99814.83;1802859;79;22097;-70
2021/01/18 01:37:54;;;;;;;1.50;1.43;;;;;;;-15.76;100.00;99805.74;1777679;79;21367;-68
2021/01/18 01:40:22;;;;;;;1.57;1.47;;;;;;;-15.76;100.00;99805.74;1806455;79;21890;-69
2021/01/18 01:42:50;;;;;;;2.47;2.27;;;;;;;-15.80;100.00;99807.95;1806440;79;21429;-69
2021/01/18 01:45:19;;;;;;;5.37;2.97;;;;;;;-15.82;100.00;99804.52;1806344;79;21455;-69
2021/01/18 01:47:49;;;;;;;2.57;1.63;;;;;;;-15.82;100.00;99804.52;1806450;79;22059;-69
2021/01/18 01:50:33;;;;;;;4.17;3.13;;;;;;;-15.86;100.00;99810.16;1806269;79;21479;-69
2021/01/18 01:53:12;;;;;;;6.50;2.20;;;;;;;-15.85;100.00;99814.45;1806439;79;21448;-69
2021/01/18 01:55:40;;;;;;;2.97;2.13;;;;;;;-15.83;100.00;99823.51;1804507;79;21424;-69
2021/01/18 01:58:08;;;;;;;4.97;3.47;;;;;;;-15.87;100.00;99818.79;1777248;79;22107;-69
2021/01/18 02:00:38;;;;;;;5.00;3.47;;;;;;;-15.79;100.00;99818.72;1806374;79;21422;-69
2021/01/18 02:03:13;;;;;;;3.63;2.27;;;;;;;-15.79;100.00;99818.72;1806514;79;21952;-69
2021/01/18 02:05:42;;;;;;;2.83;1.67;;;;;;;-15.79;100.00;99823.48;1806364;79;21310;-69
2021/01/18 02:08:10;;;;;;;6.13;2.87;;;;;;;-15.76;100.00;99822.14;1806358;79;21344;-69
2021/01/18 02:10:38;;;;;;;4.67;2.37;;;;;;;-15.76;100.00;99822.14;1811866;79;21406;-70
2021/01/18 02:13:50;;;;;;;3.90;3.30;;;;;;;-15.74;100.00;99828.17;1790376;80;21469;-69
2021/01/18 02:16:33;;;;;;;3.03;2.23;;;;;;;-15.70;100.00;99838.07;1773932;79;21332;-69
2021/01/18 02:19:26;;;;;;;1.50;1.40;;;;;;;-15.71;100.00;99836.34;1757462;81;21440;-69
2021/01/18 02:22:17;;;;;;;2.93;2.37;;;;;;;-15.71;100.00;99836.34;1761558;81;21512;-69
2021/01/18 02:25:08;;;;;;;2.57;1.70;;;;;;;-15.68;100.00;99854.47;1757603;81;22341;-69
2021/01/18 02:28:11;;;;;;;3.27;2.27;;;;;;;-15.70;100.00;99851.88;1761534;81;22012;-71
2021/01/18 02:31:07;;;;;;;4.30;3.92;;;;;;;-15.76;100.00;99850.64;1761775;81;21414;-71
2021/01/18 02:33:47;;;;;;;4.73;3.50;;;;;;;-15.78;100.00;99855.43;1644424;86;21077;-70
2021/01/18 02:36:49;;;;;;;3.53;3.23;;;;;;;-15.76;100.00;99857.58;1671601;85;21456;-69
2021/01/18 02:39:40;;;;;;;3.92;2.25;;;;;;;-15.74;100.00;99855.38;1671580;85;21400;-69
2021/01/18 02:42:15;;;;;;;4.20;3.05;;;;;;;-15.70;100.00;99853.18;1671845;85;21043;-68
2021/01/18 02:44:44;;;;;;;3.00;1.70;;;;;;;-15.64;100.00;99861.78;1642880;87;20976;-69
2021/01/18 02:47:12;;;;;;;4.87;2.60;;;;;;;-15.61;100.00;99864.33;1661868;86;21437;-70
2021/01/18 02:49:40;;;;;;;2.57;2.33;;;;;;;-15.61;100.00;99864.33;1671506;85;21414;-70
2021/01/18 02:54:48;;;;;;;2.33;1.50;;;;;;;-15.57;100.00;99858.27;1845637;76;22755;-68
2021/01/18 02:57:17;;;;;;;5.33;2.27;;;;;;;-15.66;100.00;99856.61;1815856;79;20905;-70
2021/01/18 02:59:47;;;;;;;1.17;1.17;;;;;;;-15.70;100.00;99856.22;1815576;79;21357;-69
2021/01/18 03:02:28;;;;;;;1.13;1.13;;;;;;;-15.70;100.00;99856.22;1815530;79;21378;-70
2021/01/18 03:05:21;;;;;;;3.50;2.87;;;;;;;-15.70;100.00;99862.69;1811976;79;21405;-69
2021/01/18 03:08:04;;;;;;;6.07;2.97;;;;;;;-15.70;100.00;99866.58;1815592;79;21432;-68
2021/01/18 03:10:59;;;;;;;4.53;1.40;;;;;;;-15.68;100.00;99870.86;1815595;79;21308;-70
2021/01/18 03:14:32;;;;;;;1.87;1.70;;;;;;;-15.62;100.00;99868.66;1810945;77;22771;-69
2021/01/18 03:17:00;;;;;;;2.33;2.00;;;;;;;-15.62;100.00;99865.22;1754913;81;21165;-70
2021/01/18 03:19:43;;;;;;;2.30;1.90;;;;;;;-15.57;100.00;99853.08;1730388;81;22135;-69
2021/01/18 03:22:23;;;;;;;3.98;2.77;;;;;;;-15.54;100.00;99853.91;1754963;81;21982;-70
2021/01/18 03:24:53;;;;;;;4.85;3.37;;;;;;;-15.55;100.00;99854.77;1754206;81;21045;-70
2021/01/18 03:27:21;;;;;;;2.87;2.60;;;;;;;-15.57;100.00;99847.90;1754892;81;20981;-70
2021/01/18 03:29:49;;;;;;;2.60;2.40;;;;;;;-15.57;100.00;99847.90;1730156;81;21984;-69
2021/01/18 03:32:17;;;;;;;6.73;3.10;;;;;;;-15.54;100.00;99853.06;1754859;81;21500;-69
2021/01/18 03:34:46;;;;;;;6.00;4.00;;;;;;;-15.51;100.00;99859.50;1754950;81;21467;-69
2021/01/18 03:37:14;;;;;;;3.77;3.27;;;;;;;-15.51;100.00;99859.50;1754900;81;21731;-70
2021/01/18 03:39:42;;;;;;;3.40;3.10;;;;;;;-15.59;100.00;99856.98;1754886;81;21731;-70
2021/01/18 03:42:11;;;;;;;15.27;5.57;;;;;;;-15.59;100.00;99856.98;1729256;81;22203;-70
2021/01/18 03:44:39;;;;;;;7.33;3.63;;;;;;;-15.58;100.00;99869.49;1690802;84;21466;-69
2021/01/18 03:47:07;;;;;;;4.70;3.87;;;;;;;-15.58;100.00;99869.49;1690765;84;21584;-69
2021/01/18 03:49:36;;;;;;;9.30;4.37;;;;;;;-15.62;100.00;99876.88;1690824;84;21519;-69
2021/01/18 03:52:04;;;;;;;7.23;3.83;;;;;;;-15.62;100.00;99876.88;1690739;84;21778;-68
2021/01/18 03:54:32;;;;;;;5.23;4.23;;;;;;;-15.67;100.00;99875.61;1690980;84;22028;-69
2021/01/18 03:56:59;;;;;;;9.97;4.20;;;;;;;-15.72;100.00;99877.37;1690852;84;22058;-69
2021/01/18 03:59:27;;;;;;;6.83;4.37;;;;;;;-15.75;100.00;99871.81;1690752;84;21571;-70
2021/01/18 04:01:56;;;;;;;3.40;3.10;;;;;;;-15.82;100.00;99870.14;1690921;84;21907;-69
2021/01/18 04:04:25;;;;;;;2.80;2.57;;;;;;;-15.86;100.00;99860.68;1690747;84;21531;-68
2021/01/18 04:06:53;;;;;;;7.83;4.57;;;;;;;-15.91;100.00;99861.14;1690835;84;21461;-69
2021/01/18 04:09:21;;;;;;;11.97;7.33;;;;;;;-15.89;100.00;99858.95;1691006;83;21540;-70
2021/01/18 04:11:49;;;;;;;11.37;7.70;;;;;;;-15.89;100.00;99861.98;1703404;84;21322;-69
2021/01/18 04:14:17;;;;;;;9.33;6.30;;;;;;;-15.96;100.00;99879.30;1703587;84;21565;-69
2021/01/18 04:16:46;;;;;;;12.20;7.53;;;;;;;-15.96;100.00;99879.30;1688133;84;21455;-69
2021/01/18 04:19:15;;;;;;;7.97;4.90;;;;;;;-15.98;100.00;99873.27;1686073;85;21470;-69
2021/01/18 04:21:44;;;;;;;10.03;5.37;;;;;;;-15.91;100.00;99870.21;1686527;84;22177;-70
2021/01/18 04:24:12;;;;;;;7.27;4.27;;;;;;;-15.91;100.00;99870.21;1720141;83;21586;-69
2021/01/18 04:26:40;;;;;;;4.83;3.27;;;;;;;-15.89;100.00;99859.40;1658512;86;21421;-69
2021/01/18 04:29:08;;;;;;;3.70;2.77;;;;;;;-15.89;100.00;99859.40;1658537;86;21956;-69
2021/01/18 04:31:42;;;;;;;9.37;4.03;;;;;;;-15.84;100.00;99858.94;1658568;86;21743;-70
2021/01/18 04:34:11;;;;;;;9.23;3.23;;;;;;;-15.77;100.00;99863.20;1658587;86;21395;-70
2021/01/18 04:36:39;;;;;;;1.27;1.27;;;;;;;-15.70;100.00;99864.84;1658482;85;21723;-70
2021/01/18 04:39:08;;;;;;;6.27;3.57;;;;;;;-15.64;100.00;99869.11;1658519;86;21435;-69
2021/01/18 04:41:36;;;;;;;4.57;3.37;;;;;;;-15.64;100.00;99885.95;1658609;85;21559;-69
2021/01/18 04:44:07;;;;;;;4.10;3.47;;;;;;;-15.64;100.00;99885.95;1658688;85;21719;-69
2021/01/18 04:46:42;;;;;;;8.57;3.97;;;;;;;-15.59;100.00;99905.38;1658653;86;21665;-69
2021/01/18 04:49:11;;;;;;;4.70;3.60;;;;;;;-15.62;100.00;99915.31;1658607;86;21749;-69
2021/01/18 04:51:52;;;;;;;6.00;3.33;;;;;;;-15.68;100.00;99917.52;1658683;86;21334;-70
2021/01/18 04:54:23;;;;;;;4.53;3.50;;;;;;;-15.73;100.00;99920.58;1631245;88;21349;-69
2021/01/18 04:57:12;;;;;;;5.33;2.83;;;;;;;-15.73;100.00;99912.80;1890255;76;22812;-69
2021/01/18 04:59:49;;;;;;;3.80;3.45;;;;;;;-15.74;100.00;99923.20;1861410;77;20991;-69
2021/01/18 05:02:22;;;;;;;6.07;3.47;;;;;;;-15.70;100.00;99923.16;1860849;77;21912;-69
2021/01/18 05:04:51;;;;;;;6.37;5.42;;;;;;;-15.68;100.00;99918.81;1747473;81;21448;-71
2021/01/18 05:07:40;;;;;;;6.27;3.77;;;;;;;-15.59;100.00;99908.82;1747417;82;21033;-70
2021/01/18 05:10:10;;;;;;;9.43;5.47;;;;;;;-15.55;100.00;99918.73;1744701;81;21435;-71
2021/01/18 05:12:42;;;;;;;16.33;6.10;;;;;;;-15.55;100.00;99914.40;1755192;81;21483;-69
2021/01/18 05:15:12;;;;;;;4.25;3.67;;;;;;;-15.55;100.00;99914.40;1755502;81;21744;-70
2021/01/18 05:17:43;;;;;;;16.07;5.13;;;;;;;-15.51;100.00;99916.11;1755979;81;21017;-70
2021/01/18 05:20:14;;;;;;;9.38;4.05;;;;;;;-15.51;100.00;99916.11;1756172;81;21460;-69
2021/01/18 05:22:56;;;;;;;2.83;2.50;;;;;;;-15.47;100.00;99916.95;1845733;76;22666;-70
2021/01/18 05:25:27;;;;;;;5.63;4.37;;;;;;;-15.51;100.00;99906.16;1815793;79;20941;-70
2021/01/18 05:28:08;;;;;;;6.43;3.37;;;;;;;-15.52;100.00;99902.72;1815761;79;22255;-69
2021/01/18 05:30:43;;;;;;;3.07;2.47;;;;;;;-15.53;100.00;99899.69;1815543;79;21380;-71
2021/01/18 05:33:15;;;;;;;9.30;2.87;;;;;;;-15.56;100.00;99909.22;1815773;79;21421;-69
2021/01/18 05:35:50;;;;;;;3.27;2.37;;;;;;;-15.56;100.00;99909.22;1815750;78;21844;-69
2021/01/18 05:38:18;;;;;;;3.30;2.57;;;;;;;-15.56;100.00;99910.10;1801933;79;20924;-70
2021/01/18 05:40:49;;;;;;;4.57;3.60;;;;;;;-15.52;100.00;99914.38;1802084;78;22124;-70
2021/01/18 05:43:34;;;;;;;10.63;3.47;;;;;;;-15.48;100.00;99914.77;1845449;76;22639;-70
2021/01/18 05:46:04;;;;;;;5.67;2.40;;;;;;;-15.52;100.00;99923.90;1815568;78;20917;-70
2021/01/18 05:48:33;;;;;;;4.60;2.10;;;;;;;-15.54;100.00;99934.28;1815817;79;21516;-71
2021/01/18 05:51:01;;;;;;;3.73;3.43;;;;;;;-15.46;100.00;99935.51;1815536;79;21483;-69
2021/01/18 05:53:31;;;;;;;7.03;4.00;;;;;;;-15.46;100.00;99935.51;1815784;79;21422;-69
2021/01/18 05:56:17;;;;;;;8.83;5.33;;;;;;;-15.46;100.00;99941.98;1768893;81;21389;-70
2021/01/18 05:58:48;;;;;;;2.93;2.23;;;;;;;-15.46;100.00;99941.98;1768503;81;21418;-69
2021/01/18 06:01:37;;;;;;;9.50;4.93;;;;;;;-15.44;100.00;99948.02;1768858;81;21717;-69
2021/01/18 06:04:17;;;;;;;6.00;3.67;;;;;;;-15.36;100.00;99946.24;1845909;76;23357;-70
2021/01/18 06:06:58;;;;;;;12.97;7.90;;;;;;;-15.41;100.00;99953.19;1811148;78;21728;-69
2021/01/18 06:09:46;;;;;;;17.47;9.63;;;;;;;-15.34;100.00;99952.72;1815939;79;21504;-69
2021/01/18 06:12:24;;;;;;;16.50;9.60;;;;;;;-15.32;100.00;99958.30;1815609;79;21489;-72
2021/01/18 06:15:12;;;;;;;11.97;4.93;;;;;;;-15.32;100.00;99958.30;1811762;78;21413;-70
2021/01/18 06:17:49;;;;;;;20.13;9.37;;;;;;;-15.27;100.00;99956.13;1736446;82;21886;-69
2021/01/18 06:20:22;;;;;;;25.63;15.87;;;;;;;-15.21;100.00;99955.63;1741547;82;21518;-70
2021/01/18 06:22:57;;;;;;;;;;;;;;;-15.21;100.00;99955.63;1746028;81;21535;-71
2021/01/18 06:25:34;;;;;;;19.80;10.83;;;;;;;-15.20;100.00;99948.73;1772294;81;20166;-74
2021/01/18 06:28:02;;;;;;;10.13;7.00;;;;;;;-15.20;100.00;99948.73;1735207;81;21957;-73
2021/01/18 06:30:32;;;;;;;8.30;5.17;;;;;;;-15.24;100.00;99950.48;1727495;83;21476;-69
2021/01/18 06:33:03;;;;;;;10.03;6.73;;;;;;;-15.27;100.00;99940.57;1680817;84;21639;-69
2021/01/18 06:35:32;;;;;;;8.10;5.93;;;;;;;-15.24;100.00;99940.52;1664283;86;21864;-71
2021/01/18 06:38:06;;;;;;;18.73;8.87;;;;;;;-15.22;100.00;99940.95;1717750;83;21404;-69
2021/01/18 06:40:41;;;;;;;7.77;5.60;;;;;;;-15.18;100.00;99938.75;1845937;76;22758;-71
2021/01/18 06:43:10;;;;;;;18.83;7.70;;;;;;;-15.12;100.00;99952.09;1816200;79;20916;-68
2021/01/18 06:45:40;;;;;;;8.07;5.20;;;;;;;-15.12;100.00;99952.09;1815746;78;21501;-69
2021/01/18 06:48:09;;;;;;;15.63;9.00;;;;;;;-15.02;100.00;99957.64;1763786;81;22096;-69
2021/01/18 06:50:41;;;;;;;13.27;4.87;;;;;;;-14.91;100.00;99962.73;1763781;81;21532;-70
2021/01/18 06:53:25;;;;;;;4.97;3.53;;;;;;;-14.82;100.00;99964.38;1764467;81;21475;-76
2021/01/18 06:56:25;;;;;;;6.27;3.47;;;;;;;-14.76;100.00;99972.13;1765623;81;22031;-77
2021/01/18 06:59:24;;;;;;;6.17;3.30;;;;;;;-14.76;100.00;99972.13;1763073;81;22487;-74
2021/01/18 07:02:13;;;;;;;6.57;3.93;;;;;;;-14.78;100.00;99987.71;1763087;81;21708;-74
2021/01/18 07:04:49;;;;;;;10.60;6.20;;;;;;;-14.74;100.00;99976.86;1846310;75;22691;-75
2021/01/18 07:07:26;;;;;;;8.70;4.83;;;;;;;-14.78;100.00;99976.03;1807189;79;21005;-78
2021/01/18 07:09:58;;;;;;;7.63;4.77;;;;;;;-14.80;100.00;99973.89;1818886;77;21406;-78
2021/01/18 07:12:28;;;;;;;7.93;5.37;;;;;;;-14.65;100.00;99970.72;1764718;81;21731;-80
2021/01/18 07:14:59;;;;;;;27.80;8.90;;;;;;;-14.65;100.00;99970.72;1759990;81;21812;-81
2021/01/18 07:17:46;;;;;;;5.97;4.62;;;;;;;-14.65;100.00;99974.62;1732916;82;21758;-76
2021/01/18 07:20:25;;;;;;;7.10;5.47;;;;;;;-14.61;100.00;99982.34;1731180;82;21052;-76
2021/01/18 07:23:15;;;;;;;;;;;;;;;-14.61;100.00;99982.34;1734026;82;21642;-78
2021/01/18 07:25:48;;;;;;;12.67;7.13;;;;;;;-14.50;100.00;99974.86;1734826;82;20139;-78
2021/01/18 07:28:20;;;;;;;3.70;3.42;;;;;;;-14.47;100.00;99967.89;1735270;82;21495;-77
2021/01/18 07:30:50;;;;;;;5.10;4.37;;;;;;;-14.45;100.00;99967.43;1735308;82;21482;-78
2021/01/18 07:33:20;;;;;;;8.90;5.67;;;;;;;-14.56;100.00;99964.95;1727548;82;21731;-77
2021/01/18 07:35:52;;;;;;;20.00;7.60;;;;;;;-14.56;100.00;99964.95;1723666;83;21683;-78
2021/01/18 07:38:25;;;;;;;11.70;6.20;;;;;;;-14.56;100.00;99964.09;1722427;83;22390;-79
2021/01/18 07:41:11;;;;;;;8.03;5.50;;;;;;;-14.51;100.00;99979.20;1722669;83;20985;-82
2021/01/18 07:43:45;;;;;;;12.20;5.80;;;;;;;-14.42;100.00;99979.54;1723086;83;21763;-79
2021/01/18 07:46:29;;;;;;;17.13;10.20;;;;;;;-14.19;100.00;99982.73;1695822;83;21749;-78
2021/01/18 07:49:14;;;;;;;16.20;9.37;;;;;;;-14.19;100.00;99982.73;1723426;83;21719;-81
2021/01/18 07:51:43;;;;;;;13.57;6.27;;;;;;;-14.12;100.00;99986.13;1722792;83;21707;-80
2021/01/18 07:54:33;;;;;;;12.10;7.43;;;;;;;-14.12;100.00;99990.02;1723058;82;21827;-78
2021/01/18 07:57:38;;;;;;;23.93;8.17;;;;;;;-14.03;100.00;99987.76;1809492;77;22762;-78
2021/01/18 08:00:24;;;;;;;14.27;9.63;;;;;;;-14.12;100.00;99990.47;1771189;80;20930;-77
2021/01/18 08:02:54;;;;;;;17.87;9.70;;;;;;;-14.21;100.00;99996.63;1770494;81;21720;-77
2021/01/18 08:05:32;;;;;;;10.93;5.97;;;;;;;-14.22;100.00;99994.90;1770083;81;21633;-77
2021/01/18 08:08:13;;;;;;;13.60;9.33;;;;;;;-14.24;100.00;99996.21;1720918;82;22229;-79
2021/01/18 08:11:15;;;;;;;14.13;8.97;;;;;;;-14.15;100.00;99990.05;1716264;82;21712;-79
2021/01/18 08:13:57;;;;;;;6.93;5.13;;;;;;;-13.97;100.00;99993.75;1707741;82;21981;-78
2021/01/18 08:16:39;;;;;;;4.47;3.83;;;;;;;-13.82;100.00;99987.48;1760097;79;21622;-81
2021/01/18 08:19:19;;;;;;;8.13;5.50;;;;;;;-13.66;100.00;99993.80;1748908;81;21724;-79
2021/01/18 08:22:05;;;;;;;16.00;6.67;;;;;;;-13.46;100.00;100002.61;1759589;79;21371;-77
2021/01/18 08:24:38;;;;;;;12.33;6.23;;;;;;;-13.28;100.00;99996.25;1701944;84;21721;-78
2021/01/18 08:27:12;;;;;;;37.17;16.60;;;;;;;-13.26;100.00;99988.86;1749103;81;21595;-79
2021/01/18 08:29:53;;;;;;;20.80;11.07;;;;;;;-13.31;100.00;99982.01;1770859;81;21683;-79
2021/01/18 08:32:37;;;;;;;34.53;20.13;;;;;;;-13.38;100.00;99980.81;1740559;81;21709;-79
2021/01/18 08:38:31;;;;;;;13.90;8.03;;;;;;;-12.98;100.00;99971.48;1840837;77;22321;-81
2021/01/18 08:41:09;;;;;;;14.77;9.87;;;;;;;-12.89;100.00;99979.16;1745931;82;20992;-81
2021/01/18 08:43:55;;;;;;;17.80;10.57;;;;;;;-12.79;100.00;99977.25;1737805;81;21383;-75
2021/01/18 08:46:39;;;;;;;16.83;7.93;;;;;;;-12.21;100.00;99971.42;1731382;81;21371;-77
2021/01/18 08:49:22;;;;;;;23.10;9.48;;;;;;;-12.21;100.00;99971.42;1737656;81;21401;-78
2021/01/18 08:51:51;;;;;;;12.00;7.62;;;;;;;-11.85;100.00;99960.64;1734837;81;21087;-81
2021/01/18 08:54:36;;;;;;;19.97;9.13;;;;;;;-11.51;100.00;99955.14;1738033;81;20949;-77
2021/01/18 08:57:25;;;;;;;19.10;10.20;;;;;;;-11.33;100.00;99950.82;1733768;83;22659;-76
2021/01/18 09:00:14;;;;;;;17.73;8.63;;;;;;;-11.22;100.00;99944.47;1686114;83;21002;-75
2021/01/18 09:02:49;;;;;;;14.40;6.87;;;;;;;-11.25;100.00;99945.86;1749718;82;20934;-78
2021/01/18 09:05:21;;;;;;;15.25;8.28;;;;;;;-11.30;100.00;99940.28;1732495;81;20946;-78
2021/01/18 09:07:53;;;;;;;15.07;7.83;;;;;;;-11.39;100.00;99930.06;1782922;80;21017;-79
2021/01/18 09:10:37;;;;;;;18.17;6.57;;;;;;;-11.40;100.00;99935.31;1744447;81;21657;-77
2021/01/18 09:13:09;;;;;;;13.43;5.77;;;;;;;-11.14;100.00;99938.63;1734055;83;20949;-79
2021/01/18 09:15:39;;;;;;;20.30;8.43;;;;;;;-10.99;100.00;99934.34;1741807;81;20959;-78
2021/01/18 09:18:12;;;;;;;14.10;7.23;;;;;;;-10.87;100.00;99921.85;1727358;83;21012;-80
2021/01/18 09:21:08;;;;;;;15.13;8.80;;;;;;;-10.60;100.00;99910.69;1734288;82;21013;-80
2021/01/18 09:23:53;;;;;;;12.00;7.77;;;;;;;-10.40;100.00;99904.91;1734755;82;21316;-83
2021/01/18 09:26:30;;;;;;;12.87;7.93;;;;;;;-10.17;100.00;99909.45;1706712;83;20941;-82
2021/01/18 09:29:12;;;;;;;29.07;14.93;;;;;;;-10.20;100.00;99915.22;1733988;83;20914;-83
2021/01/18 09:32:21;;;;;;;24.67;10.93;;;;;;;-10.23;100.00;99911.38;1734607;83;21120;-81
2021/01/18 09:35:11;;;;;;;18.03;8.63;;;;;;;-10.23;100.00;99910.95;1733084;82;21044;-78
2021/01/18 09:37:46;;;;;;;28.20;16.50;;;;;;;-10.28;100.00;99925.91;1723748;82;21400;-75
2021/01/18 09:40:18;;;;;;;20.03;10.77;;;;;;;-10.16;100.00;99921.64;1756494;80;21029;-75
2021/01/18 09:42:46;;;;;;;18.10;9.80;;;;;;;-9.99;100.00;99920.30;1776961;79;20958;-71
2021/01/18 09:45:15;;;;;;;20.20;10.43;;;;;;;-9.86;100.00;99926.89;1793123;79;20986;-73
2021/01/18 09:47:48;;;;;;;18.62;10.00;;;;;;;-9.57;100.00;99935.16;1763648;80;20962;-75
2021/01/18 09:50:20;;;;;;;26.40;13.37;;;;;;;-9.29;100.00;99935.62;1772122;80;21200;-74
2021/01/18 09:52:51;;;;;;;11.27;6.40;;;;;;;-9.17;100.00;99929.12;1785736;79;21057;-74
2021/01/18 09:55:25;;;;;;;15.83;6.63;;;;;;;-9.10;100.00;99932.41;1774740;79;21065;-76
2021/01/18 09:58:19;;;;;;;15.93;7.33;;;;;;;-8.91;100.00;99938.75;1774309;79;21057;-75
2021/01/18 10:00:49;;;;;;;20.30;8.67;;;;;;;-8.66;99.36;99936.62;1780065;79;21014;-79
2021/01/18 10:03:36;;;;;;;17.47;8.70;;;;;;;-8.80;96.56;99935.34;1775743;79;21411;-81
2021/01/18 10:06:10;;;;;;;26.53;10.03;;;;;;;-8.83;96.26;99931.50;1773202;81;20970;-73
2021/01/18 10:08:42;;;;;;;13.27;7.27;;;;;;;-8.98;92.97;99938.55;1780599;79;21448;-75
2021/01/18 10:11:11;;;;;;;20.47;9.53;;;;;;;-9.26;91.07;99937.28;1745638;81;21061;-71
2021/01/18 10:13:42;;;;;;;30.67;11.80;;;;;;;-9.63;88.73;99935.80;1711830;84;21038;-80
2021/01/18 10:16:14;;;;;;;31.57;13.85;;;;;;;-9.92;88.08;99938.38;1712417;84;21215;-80
2021/01/18 10:19:18;;;;;;;21.93;10.17;;;;;;;-9.98;88.56;99933.80;1712781;84;21030;-80
2021/01/18 10:21:49;;;;;;;35.23;18.53;;;;;;;-9.89;89.77;99936.14;1694713;84;21101;-81
2021/01/18 10:24:33;;;;;;;28.87;12.47;;;;;;;-9.79;89.82;99947.17;1684063;85;20990;-78
2021/01/18 10:27:15;;;;;;;12.83;5.67;;;;;;;-9.80;89.43;99950.25;1682518;85;21046;-76
2021/01/18 10:29:45;;;;;;;10.50;6.47;;;;;;;-9.67;90.36;99947.27;1680374;84;21228;-75
2021/01/18 10:32:13;;;;;;;10.00;5.30;;;;;;;-9.53;90.09;99933.31;1664619;85;21097;-73
2021/01/18 10:34:43;;;;;;;29.67;11.33;;;;;;;-9.44;90.74;99935.64;1722017;82;21056;-74
2021/01/18 10:37:17;;;;;;;14.87;7.53;;;;;;;-9.19;91.30;99936.17;1715253;82;21051;-75
2021/01/18 10:39:46;;;;;;;17.03;8.93;;;;;;;-9.12;89.69;99927.67;1723425;83;21057;-74
2021/01/18 10:42:19;;;;;;;12.40;6.63;;;;;;;-9.26;88.30;99926.38;1699311;83;21750;-76
2021/01/18 10:44:56;;;;;;;13.87;8.00;;;;;;;-9.37;87.23;99924.06;1723214;83;22059;-76
2021/01/18 10:47:28;;;;;;;27.63;13.63;;;;;;;-9.50;87.32;99921.44;1723528;83;21047;-81
2021/01/18 10:50:14;;;;;;;15.13;8.43;;;;;;;-9.37;88.32;99920.13;1722578;83;21106;-80
2021/01/18 10:52:43;;;;;;;20.67;9.03;;;;;;;-9.26;88.32;99910.66;1715801;83;21023;-78
2021/01/18 10:55:14;;;;;;;15.03;7.63;;;;;;;-9.24;88.26;99909.27;1723861;83;21497;-80
2021/01/18 10:57:46;;;;;;;20.20;8.97;;;;;;;-9.20;87.33;99910.91;1718948;83;20990;-78
2021/01/18 11:00:19;;;;;;;14.30;6.40;;;;;;;-9.34;85.84;99902.17;1723550;83;20979;-77
2021/01/18 11:02:57;;;;;;;;;;;;;;;-9.48;84.83;99903.08;1726571;83;20987;-80
2021/01/18 11:05:39;;;;;;;15.87;7.30;;;;;;;-9.56;85.09;99897.62;1677150;83;20104;-80
2021/01/18 11:18:48;;;;;;;11.53;4.93;;;;;;;-9.13;86.63;99887.53;1826749;77;22837;-79
2021/01/18 11:21:27;;;;;;;15.33;8.63;;;;;;;-8.99;85.94;99885.30;1800286;79;20926;-80
2021/01/18 11:23:55;;;;;;;13.27;6.50;;;;;;;-9.00;84.89;99877.03;1821961;79;22208;-78
2021/01/18 11:26:24;;;;;;;15.30;7.93;;;;;;;-9.00;84.06;99869.17;1820395;78;21449;-72
2021/01/18 11:28:52;;;;;;;17.33;7.90;;;;;;;-9.02;82.83;99866.21;1795557;79;21025;-71
2021/01/18 11:31:21;;;;;;;14.77;7.93;;;;;;;-9.28;81.52;99869.23;1793893;79;21013;-68
2021/01/18 11:33:49;;;;;;;23.40;10.67;;;;;;;-9.32;82.78;99866.31;1759430;80;20960;-71
2021/01/18 11:36:25;;;;;;;17.53;7.83;;;;;;;-9.16;83.68;99866.67;1746778;81;21211;-72
2021/01/18 11:38:53;;;;;;;14.97;7.57;;;;;;;-9.14;83.98;99862.69;1739527;81;21476;-72
2021/01/18 11:41:23;;;;;;;16.67;8.03;;;;;;;-9.02;84.01;99862.28;1758938;80;21045;-71
2021/01/18 11:43:53;;;;;;;19.73;10.37;;;;;;;-9.05;83.12;99865.00;1731707;83;21002;-71
2021/01/18 11:46:21;;;;;;;14.67;8.87;;;;;;;-9.13;82.08;99868.34;1745909;81;20987;-72
2021/01/18 11:48:50;;;;;;;12.67;7.90;;;;;;;-9.33;81.51;99875.53;1755921;81;21659;-70
2021/01/18 11:51:18;;;;;;;13.80;8.03;;;;;;;-9.37;81.95;99870.84;1755165;80;21745;-71
2021/01/18 11:56:17;;;;;;;18.63;9.87;;;;;;;-9.36;82.74;99877.34;1657126;84;21627;-71
2021/01/18 11:58:45;;;;;;;10.73;6.43;;;;;;;-9.25;83.62;99874.38;1642371;86;21034;-72
2021/01/18 12:01:13;;;;;;;14.70;7.97;;;;;;;-9.20;83.96;99891.27;1656966;86;21746;-75
2021/01/18 12:03:42;;;;;;;17.97;9.70;;;;;;;-9.12;84.62;99908.87;1643377;86;21029;-71
2021/01/18 12:06:10;;;;;;;13.67;7.33;;;;;;;-8.93;85.33;99909.13;1641259;87;21076;-70
2021/01/18 12:08:40;;;;;;;14.97;8.23;;;;;;;-9.02;83.29;99908.98;1641166;87;21096;-73
2021/01/18 12:11:08;;;;;;;12.30;6.60;;;;;;;-9.21;81.83;99915.73;1641203;87;21076;-72